Time;durP1;ratioP1;P1;durP2;ratioP2;P2;SDS_P1;SDS_P2;PMS_P1;PMS_P2;Temp;Humidity;BMP_temperature;BMP_pressure;BME280_temperature;BME280_humidity;BME280_pressure;Samples;Min_cycle;Max_cycle;Signal;HPM_P1;HPM_P2
2020/12/15 00:00:45;;;;;;;;;48.30;36.10;;;;;4.28;75.28;100872.30;452895;120;386778;-75
2020/12/15 00:01:51;;;;;;;;;54.50;40.80;;;;;4.32;74.99;100869.52;449842;120;387047;-75
2020/12/15 00:02:55;;;;;;;;;50.20;38.30;;;;;4.32;74.99;100869.52;453273;119;385546;-74
2020/12/15 00:03:59;;;;;;;;;49.40;40.00;;;;;4.37;74.38;100867.55;451044;120;384474;-75
2020/12/15 00:05:03;;;;;;;;;42.50;36.50;;;;;4.37;74.38;100867.55;450226;120;391857;-74
2020/12/15 00:06:07;;;;;;;;;44.50;36.50;;;;;4.40;74.49;100867.41;451932;120;385964;-73
2020/12/15 00:07:11;;;;;;;;;45.10;34.90;;;;;4.40;74.49;100867.41;451266;120;386760;-74
2020/12/15 00:08:15;;;;;;;;;43.50;35.40;;;;;4.42;74.47;100860.28;453522;119;385644;-75
2020/12/15 00:09:19;;;;;;;;;49.50;39.40;;;;;4.42;74.17;100865.55;456565;119;385359;-75
2020/12/15 00:10:23;;;;;;;;;43.70;36.40;;;;;4.42;74.17;100865.55;451798;120;386001;-75
2020/12/15 00:11:26;;;;;;;;;45.30;38.90;;;;;4.43;74.90;100872.53;455021;120;384934;-76
2020/12/15 00:12:30;;;;;;;;;48.40;39.40;;;;;4.41;74.46;100872.59;449550;120;392021;-78
2020/12/15 00:13:34;;;;;;;;;40.80;34.60;;;;;4.43;73.99;100877.80;452292;120;390650;-78
2020/12/15 00:14:38;;;;;;;;;48.60;37.70;;;;;4.43;73.99;100869.91;451429;120;386874;-79
2020/12/15 00:15:42;;;;;;;;;43.10;34.20;;;;;4.45;73.78;100873.31;451063;120;383337;-78
2020/12/15 00:16:46;;;;;;;;;44.90;37.20;;;;;4.45;73.78;100873.31;453498;120;386763;-75
2020/12/15 00:17:50;;;;;;;;;43.00;36.00;;;;;4.45;73.72;100868.05;451464;120;384096;-77
2020/12/15 00:18:54;;;;;;;;;47.90;37.50;;;;;4.41;74.48;100862.05;451088;120;386613;-76
2020/12/15 00:19:58;;;;;;;;;47.00;38.10;;;;;4.41;74.48;100862.05;454059;120;385092;-76
2020/12/15 00:21:01;;;;;;;;;44.80;39.30;;;;;4.42;74.01;100862.92;452116;120;385084;-76
2020/12/15 00:22:06;;;;;;;;;42.00;31.60;;;;;4.43;73.48;100878.66;453801;120;386021;-76
2020/12/15 00:23:10;;;;;;;;;49.00;37.60;;;;;4.43;73.84;100867.27;453570;120;395789;-78
2020/12/15 00:24:14;;;;;;;;;40.90;31.20;;;;;4.43;73.84;100867.27;452439;120;384260;-78
2020/12/15 00:25:18;;;;;;;;;45.60;39.30;;;;;4.42;73.94;100865.55;455918;119;384616;-74
2020/12/15 00:26:23;;;;;;;;;35.60;31.20;;;;;4.42;73.94;100865.55;444617;122;386226;-74
2020/12/15 00:27:27;;;;;;;;;42.20;32.40;;;;;4.39;74.04;100871.82;445760;122;386547;-74
2020/12/15 00:28:31;;;;;;;;;40.30;33.00;;;;;4.40;74.29;100872.68;438318;124;384961;-75
2020/12/15 00:29:35;;;;;;;;;45.40;38.80;;;;;4.37;74.20;100867.55;452856;120;386387;-75
2020/12/15 00:30:40;;;;;;;;;45.20;35.60;;;;;4.37;74.20;100867.55;450318;120;385691;-76
2020/12/15 00:31:44;;;;;;;;;49.40;38.40;;;;;4.37;74.31;100868.38;451305;120;386013;-75
2020/12/15 00:32:48;;;;;;;;;45.50;34.20;;;;;4.37;74.31;100868.38;451698;120;386701;-75
2020/12/15 00:33:52;;;;;;;;;42.70;36.10;;;;;4.36;74.23;100865.83;449540;120;386264;-75
2020/12/15 00:34:56;;;;;;;;;38.20;32.00;;;;;4.38;74.31;100858.70;451455;120;391714;-73
2020/12/15 00:35:59;;;;;;;;;48.50;37.30;;;;;4.38;74.22;100863.97;450903;120;393626;-74
2020/12/15 00:37:03;;;;;;;;;41.60;32.80;;;;;4.39;74.06;100861.28;450463;120;387239;-74
2020/12/15 00:38:07;;;;;;;;;38.18;34.36;;;;;4.39;74.06;100861.28;454555;119;387198;-73
2020/12/15 00:39:11;;;;;;;;;40.30;34.10;;;;;4.39;73.97;100865.69;451274;120;393233;-73
2020/12/15 00:40:17;;;;;;;;;42.00;36.60;;;;;4.39;73.97;100865.69;453245;119;384366;-74
2020/12/15 00:41:20;;;;;;;;;37.40;31.60;;;;;4.36;74.04;100861.42;450027;120;389697;-71
2020/12/15 00:42:25;;;;;;;;;45.10;34.70;;;;;4.34;74.15;100862.43;452971;120;386191;-71
2020/12/15 00:43:29;;;;;;;;;40.90;32.70;;;;;4.30;74.40;100866.98;451004;120;386002;-72
2020/12/15 00:44:33;;;;;;;;;43.80;33.90;;;;;4.30;74.40;100866.98;450807;120;386250;-71
2020/12/15 00:45:37;;;;;;;;;37.40;32.40;;;;;4.31;74.20;100867.84;451043;120;384283;-71
2020/12/15 00:46:43;;;;;;;;;46.40;38.40;;;;;4.31;74.20;100867.84;450673;120;385819;-71
2020/12/15 00:47:47;;;;;;;;;42.90;34.60;;;;;4.31;74.29;100867.84;449964;120;386439;-76
2020/12/15 00:48:51;;;;;;;;;41.80;33.30;;;;;4.31;74.29;100867.84;453143;120;384943;-76
2020/12/15 00:49:54;;;;;;;;;36.70;34.10;;;;;4.35;74.04;100861.48;453880;119;390217;-76
2020/12/15 00:50:58;;;;;;;;;42.10;36.30;;;;;4.35;73.88;100858.85;442858;122;386539;-77
2020/12/15 00:52:02;;;;;;;;;41.60;32.70;;;;;4.35;73.88;100858.85;445199;122;385877;-77
2020/12/15 00:53:07;;;;;;;;;39.80;31.30;;;;;4.37;73.96;100857.02;443656;122;385753;-77
2020/12/15 00:54:11;;;;;;;;;37.30;32.60;;;;;4.39;73.64;100860.42;447841;122;386090;-76
2020/12/15 00:55:14;;;;;;;;;41.00;33.50;;;;;4.33;73.92;100860.70;442796;122;385766;-78
2020/12/15 00:56:19;;;;;;;;;43.60;35.60;;;;;4.31;73.97;100852.86;444035;122;385557;-79
2020/12/15 00:57:23;;;;;;;;;35.00;26.80;;;;;4.31;74.28;100857.30;446381;122;383990;-79
2020/12/15 00:58:27;;;;;;;;;46.10;37.00;;;;;4.26;74.20;100860.99;446453;122;385847;-77
2020/12/15 00:59:31;;;;;;;;;38.30;33.00;;;;;4.21;74.36;100867.40;445818;122;383487;-76
2020/12/15 01:00:37;;;;;;;;;43.40;36.10;;;;;4.21;74.36;100867.40;444022;122;385931;-77
2020/12/15 01:01:41;;;;;;;;;41.30;34.90;;;;;4.23;74.73;100861.13;452966;120;384422;-74
2020/12/15 01:02:46;;;;;;;;;48.40;36.60;;;;;4.23;74.73;100861.13;451053;120;385669;-74
2020/12/15 01:03:50;;;;;;;;;42.20;35.70;;;;;4.24;74.48;100867.25;452008;120;386018;-76
2020/12/15 01:04:55;;;;;;;;;49.90;38.70;;;;;4.24;74.61;100861.99;450255;120;387378;-75
2020/12/15 01:05:59;;;;;;;;;37.40;33.70;;;;;4.24;74.61;100861.99;450818;120;385371;-73
2020/12/15 01:07:05;;;;;;;;;35.90;29.80;;;;;4.24;74.68;100868.08;450257;120;383236;-75
2020/12/15 01:08:09;;;;;;;;;35.10;32.00;;;;;4.24;74.47;100870.72;451975;120;385574;-77
2020/12/15 01:09:12;;;;;;;;;38.90;31.10;;;;;4.26;74.59;100865.40;451625;120;383320;-77
2020/12/15 01:10:18;;;;;;;;;38.00;31.80;;;;;4.24;74.58;100868.08;454318;119;392517;-76
2020/12/15 01:11:29;;;;;;;;;41.00;30.70;;;;;4.24;74.58;100868.08;452131;120;386143;-76
2020/12/15 01:12:33;;;;;;;;;42.60;32.90;;;;;4.25;74.40;100864.54;442750;123;393932;-78
2020/12/15 01:13:37;;;;;;;;;39.80;28.30;;;;;4.26;74.50;100858.36;443782;122;384386;-77
2020/12/15 01:14:41;;;;;;;;;34.70;30.90;;;;;4.28;74.88;100859.13;446240;122;384760;-78
2020/12/15 01:15:45;;;;;;;;;36.60;32.60;;;;;4.31;74.44;100855.50;448521;122;385051;-77
2020/12/15 01:16:50;;;;;;;;;36.40;31.70;;;;;4.31;74.44;100855.50;445271;122;384970;-78
2020/12/15 01:17:54;;;;;;;;;46.20;33.10;;;;;4.34;74.39;100851.89;447431;122;385759;-78
2020/12/15 01:19:00;;;;;;;;;43.00;33.00;;;;;4.34;74.04;100867.70;452179;120;385387;-76
2020/12/15 01:20:05;;;;;;;;;38.50;33.30;;;;;4.34;74.04;100867.70;452902;120;385131;-77
2020/12/15 01:21:09;;;;;;;;;37.70;31.00;;;;;4.31;74.16;100858.13;454525;120;384749;-76
2020/12/15 01:22:13;;;;;;;;;40.50;36.30;;;;;4.31;74.16;100858.13;449470;120;385219;-76
2020/12/15 01:23:17;;;;;;;;;38.10;32.10;;;;;4.28;74.26;100874.93;448255;120;391377;-75
2020/12/15 01:24:25;;;;;;;;;36.80;29.90;;;;;4.29;74.18;100859.99;445647;122;390975;-77
2020/12/15 01:25:39;;;;;;;;;39.00;32.00;;;;;4.29;74.18;100859.99;432845;125;385595;-78
2020/12/15 01:26:46;;;;;;;;;42.90;34.50;;;;;4.25;74.45;100871.58;433118;125;393678;-75
2020/12/15 01:27:50;;;;;;;;;36.10;32.20;;;;;4.28;74.47;100865.34;437826;124;384624;-74
2020/12/15 01:28:55;;;;;;;;;40.60;31.70;;;;;4.25;74.42;100875.07;437758;124;385226;-74
2020/12/15 01:29:59;;;;;;;;;40.10;31.30;;;;;4.25;74.42;100875.07;446232;122;385588;-76
2020/12/15 01:31:04;;;;;;;;;39.80;32.40;;;;;4.23;74.73;100874.30;443698;122;384035;-76
2020/12/15 01:32:08;;;;;;;;;40.90;32.70;;;;;4.23;74.55;100879.56;446218;122;393135;-76
2020/12/15 01:33:12;;;;;;;;;32.90;27.10;;;;;4.23;74.55;100879.56;446467;122;383725;-76
2020/12/15 01:34:33;;;;;;;;;36.40;29.60;;;;;4.20;74.74;100871.80;444964;122;384198;-75
2020/12/15 01:35:38;;;;;;;;;35.60;28.20;;;;;4.18;74.82;100878.06;444041;122;383321;-78
2020/12/15 01:36:42;;;;;;;;;32.60;29.80;;;;;4.18;74.82;100878.06;446465;122;384346;-77
2020/12/15 01:37:47;;;;;;;;;38.30;29.60;;;;;4.11;74.79;100872.22;446274;122;384973;-76
2020/12/15 01:38:53;;;;;;;;;43.00;34.40;;;;;4.13;74.71;100869.50;445244;122;386238;-77
2020/12/15 01:39:56;;;;;;;;;40.20;31.60;;;;;4.14;74.47;100872.08;444174;122;384600;-76
2020/12/15 01:41:02;;;;;;;;;37.00;30.70;;;;;4.17;74.67;100876.34;445234;122;385530;-77
2020/12/15 01:42:08;;;;;;;;;40.20;34.20;;;;;4.20;74.65;100878.84;446363;122;386166;-77
2020/12/15 01:43:13;;;;;;;;;39.50;28.20;;;;;4.20;74.44;100866.54;445696;122;384702;-76
2020/12/15 01:44:17;;;;;;;;;35.27;29.64;;;;;4.20;74.44;100866.54;444147;122;390375;-74
2020/12/15 01:45:24;;;;;;;;;39.70;31.00;;;;;4.23;74.28;100868.17;445872;122;385763;-77
2020/12/15 01:46:30;;;;;;;;;40.70;31.70;;;;;4.22;74.46;100866.45;445860;122;384199;-77
2020/12/15 01:47:33;;;;;;;;;38.20;31.60;;;;;4.22;74.37;100867.31;446086;122;385663;-76
2020/12/15 01:48:37;;;;;;;;;37.90;30.30;;;;;4.22;74.37;100867.31;440976;123;388257;-77
2020/12/15 01:49:42;;;;;;;;;26.91;21.91;;;;;4.24;74.44;100865.45;440719;123;387417;-75
2020/12/15 01:50:47;;;;;;;;;38.30;30.10;;;;;4.23;74.44;100866.40;446272;122;384723;-77
2020/12/15 01:51:51;;;;;;;;;38.80;30.40;;;;;4.22;74.62;100875.21;446178;122;383829;-77
2020/12/15 01:52:57;;;;;;;;;30.00;27.50;;;;;4.22;74.60;100874.34;443306;122;388972;-75
2020/12/15 01:54:02;;;;;;;;;41.00;31.00;;;;;4.22;74.60;100874.34;446811;122;387001;-76
2020/12/15 01:55:08;;;;;;;;;37.70;31.20;;;;;4.22;74.51;100867.31;445928;122;383581;-77
2020/12/15 01:56:17;;;;;;;;;33.30;26.70;;;;;4.17;74.55;100874.58;444535;122;385220;-75
2020/12/15 01:57:21;;;;;;;;;38.70;30.80;;;;;4.16;74.77;100875.48;440369;123;385671;-75
2020/12/15 01:58:34;;;;;;;;;32.40;30.00;;;;;4.16;74.81;100874.63;441228;122;383626;-76
2020/12/15 01:59:40;;;;;;;;;40.20;32.50;;;;;4.16;74.81;100874.63;445617;121;384877;-74
2020/12/15 02:00:45;;;;;;;;;36.30;28.10;;;;;4.15;74.92;100876.40;439886;123;388838;-76
2020/12/15 02:01:51;;;;;;;;;35.90;30.50;;;;;4.15;74.83;100865.02;448988;121;391784;-75
2020/12/15 02:02:57;;;;;;;;;42.40;34.00;;;;;4.19;75.09;100870.08;447341;121;387162;-76
2020/12/15 02:04:02;;;;;;;;;41.60;34.10;;;;;4.19;75.09;100870.08;439717;123;384976;-74
2020/12/15 02:05:08;;;;;;;;;43.00;33.50;;;;;4.21;74.79;100872.66;447460;121;385935;-76
2020/12/15 02:06:13;;;;;;;;;44.10;34.00;;;;;4.22;74.66;100866.45;441343;123;387004;-75
2020/12/15 02:07:21;;;;;;;;;32.00;27.80;;;;;4.23;74.67;100866.40;439386;122;385369;-76
2020/12/15 02:08:25;;;;;;;;;42.00;33.00;;;;;4.17;74.93;100866.67;448859;121;385754;-76
2020/12/15 02:09:29;;;;;;;;;40.20;31.20;;;;;4.20;74.75;100863.91;448809;121;384440;-76
2020/12/15 02:10:36;;;;;;;;;43.40;34.20;;;;;4.20;74.75;100863.91;426751;124;386467;-77
2020/12/15 02:11:45;;;;;;;;;41.50;33.10;;;;;4.20;74.85;100855.15;448627;121;388574;-75
2020/12/15 02:12:50;;;;;;;;;37.90;29.70;;;;;4.20;74.85;100855.15;448683;121;384991;-76
2020/12/15 02:13:54;;;;;;;;;40.70;31.80;;;;;4.19;74.75;100863.95;447584;122;385473;-76
2020/12/15 02:14:58;;;;;;;;;38.00;30.90;;;;;4.20;74.67;100860.41;440175;124;385595;-76
2020/12/15 02:16:05;;;;;;;;;40.40;32.60;;;;;4.17;74.72;100871.08;440362;123;385169;-77
2020/12/15 02:17:09;;;;;;;;;29.10;23.50;;;;;4.19;74.80;100875.34;448709;121;384267;-77
2020/12/15 02:18:18;;;;;;;;;37.80;33.20;;;;;4.18;74.51;100873.63;445359;121;390299;-74
2020/12/15 02:19:23;;;;;;;;;35.90;32.30;;;;;4.18;74.51;100873.63;448490;121;385731;-76
2020/12/15 02:20:29;;;;;;;;;40.20;32.60;;;;;4.14;74.94;100876.48;439639;123;390662;-75
2020/12/15 02:21:51;;;;;;;;;34.00;27.60;;;;;4.15;75.05;100871.13;444413;122;383731;-76
2020/12/15 02:22:55;;;;;;;;;40.20;32.10;;;;;4.15;75.05;100871.13;447788;122;386266;-76
2020/12/15 02:23:59;;;;;;;;;39.40;30.90;;;;;4.19;74.71;100869.22;450366;120;391540;-76
2020/12/15 02:25:06;;;;;;;;;42.60;34.00;;;;;4.19;74.71;100869.22;452388;120;385691;-76
2020/12/15 02:26:10;;;;;;;;;42.50;32.20;;;;;4.16;74.70;100870.22;453272;120;391047;-74
2020/12/15 02:27:14;;;;;;;;;36.90;31.40;;;;;4.16;74.73;100864.09;452978;120;385380;-74
2020/12/15 02:28:19;;;;;;;;;35.80;30.30;;;;;4.16;74.73;100864.09;449117;120;385236;-72
2020/12/15 02:29:24;;;;;;;;;39.50;33.70;;;;;4.17;74.77;100871.08;454850;120;385788;-74
2020/12/15 02:30:28;;;;;;;;;28.90;26.20;;;;;4.15;74.77;100868.50;446355;122;390535;-76
2020/12/15 02:31:33;;;;;;;;;35.80;28.20;;;;;4.15;74.94;100873.77;448793;120;385067;-75
2020/12/15 02:32:37;;;;;;;;;30.40;24.40;;;;;4.15;74.94;100873.77;449157;120;391249;-75
2020/12/15 02:33:42;;;;;;;;;32.20;27.30;;;;;4.16;74.78;100879.89;453459;120;382353;-74
2020/12/15 02:34:46;;;;;;;;;35.20;28.00;;;;;4.17;74.88;100877.20;445124;122;384269;-74
2020/12/15 02:35:52;;;;;;;;;35.50;31.00;;;;;4.20;74.96;100881.47;445037;122;393487;-73
2020/12/15 02:36:56;;;;;;;;;39.60;29.90;;;;;4.19;74.65;100877.98;432934;126;385700;-73
2020/12/15 02:38:02;;;;;;;;;34.10;26.30;;;;;4.22;74.78;100885.74;448904;120;385478;-73
2020/12/15 02:39:09;;;;;;;;;35.30;30.20;;;;;4.18;74.79;100886.80;450851;120;385043;-73
2020/12/15 02:40:15;;;;;;;;;27.00;21.70;;;;;4.18;74.79;100886.80;447565;122;388661;-74
2020/12/15 02:41:20;;;;;;;;;37.70;26.80;;;;;4.18;74.63;100884.16;447699;120;389880;-73
2020/12/15 02:42:29;;;;;;;;;37.80;28.50;;;;;4.19;74.52;100890.28;449964;120;387236;-74
2020/12/15 02:43:32;;;;;;;;;41.10;33.30;;;;;4.17;74.85;100885.10;452156;120;385563;-77
2020/12/15 02:44:37;;;;;;;;;33.90;29.20;;;;;4.12;74.76;100875.67;439357;122;385143;-76
2020/12/15 02:45:42;;;;;;;;;36.20;30.60;;;;;4.12;74.76;100875.67;442814;122;390340;-76
2020/12/15 02:46:49;;;;;;;;;33.00;28.40;;;;;4.12;75.26;100879.17;451361;120;389524;-75
2020/12/15 02:47:53;;;;;;;;;38.60;31.10;;;;;4.14;75.00;100874.72;452588;120;384304;-73
2020/12/15 02:48:58;;;;;;;;;38.80;29.30;;;;;4.14;75.05;100874.72;448296;120;385122;-73
2020/12/15 02:50:02;;;;;;;;;40.70;32.20;;;;;4.14;75.05;100874.72;451146;120;386091;-71
2020/12/15 02:51:06;;;;;;;;;41.70;34.00;;;;;4.14;74.98;100879.12;450749;120;385745;-75
2020/12/15 02:52:11;;;;;;;;;43.30;33.80;;;;;4.14;75.01;100877.34;447120;120;386379;-75
2020/12/15 02:53:17;;;;;;;;;28.70;25.60;;;;;4.17;74.99;100882.47;451681;120;384220;-74
2020/12/15 02:54:22;;;;;;;;;36.70;32.60;;;;;4.17;74.99;100882.47;444474;122;385499;-74
2020/12/15 02:55:25;;;;;;;;;55.80;39.90;;;;;4.15;74.88;100880.80;443725;122;386119;-74
2020/12/15 02:56:30;;;;;;;;;37.50;33.50;;;;;4.16;74.98;100882.52;452146;120;385694;-76
2020/12/15 02:57:34;;;;;;;;;47.20;38.70;;;;;4.10;75.22;100886.30;448153;122;386527;-75
2020/12/15 02:58:37;;;;;;;;;50.80;36.60;;;;;4.09;75.20;100881.08;432519;124;388014;-77
2020/12/15 02:59:42;;;;;;;;;46.80;36.00;;;;;4.09;75.17;100881.08;443713;122;386462;-75
2020/12/15 03:00:47;;;;;;;;;38.10;30.00;;;;;4.10;75.00;100881.03;443509;122;386757;-77
2020/12/15 03:01:52;;;;;;;;;46.30;37.70;;;;;4.11;75.24;100879.26;443479;122;393156;-76
2020/12/15 03:03:01;;;;;;;;;40.10;32.70;;;;;4.06;75.17;100884.71;439561;122;384061;-77
2020/12/15 03:04:06;;;;;;;;;44.70;37.80;;;;;3.97;75.70;100879.86;445764;122;384978;-77
2020/12/15 03:05:15;;;;;;;;;41.10;29.50;;;;;3.97;75.70;100879.86;447289;122;386637;-75
2020/12/15 03:06:19;;;;;;;;;50.40;39.60;;;;;3.92;75.98;100887.11;439656;124;387760;-75
2020/12/15 03:07:23;;;;;;;;;36.90;25.70;;;;;3.94;76.07;100881.77;442062;122;385399;-75
2020/12/15 03:08:29;;;;;;;;;43.40;34.80;;;;;3.96;75.72;100887.80;451362;120;386113;-76
2020/12/15 03:09:34;;;;;;;;;41.80;35.00;;;;;3.98;75.69;100893.88;452260;120;385610;-76
2020/12/15 03:10:39;;;;;;;;;45.60;38.10;;;;;4.00;75.64;100897.28;450417;120;384941;-76
2020/12/15 03:11:44;;;;;;;;;42.60;35.00;;;;;4.00;75.64;100897.28;452019;120;387145;-77
2020/12/15 03:12:50;;;;;;;;;46.30;40.00;;;;;3.94;76.02;100901.05;450693;120;386410;-78
2020/12/15 03:13:54;;;;;;;;;42.60;33.90;;;;;3.84;75.93;100899.73;452684;120;388191;-76
2020/12/15 03:14:58;;;;;;;;;41.30;35.10;;;;;3.86;76.21;100897.87;451532;120;386106;-78
2020/12/15 03:16:02;;;;;;;;;42.40;34.40;;;;;3.86;76.21;100897.87;451877;120;386581;-78
2020/12/15 03:17:06;;;;;;;;;43.70;35.60;;;;;3.86;76.12;100897.87;443642;122;386441;-79
2020/12/15 03:18:10;;;;;;;;;43.60;37.30;;;;;3.89;76.13;100902.17;441420;122;387841;-80
2020/12/15 03:19:14;;;;;;;;;41.30;36.70;;;;;3.85;76.34;100901.45;450058;120;386107;-79
2020/12/15 03:20:19;;;;;;;;;49.70;39.60;;;;;3.84;76.38;100904.13;452258;120;386625;-79
2020/12/15 03:21:24;;;;;;;;;58.50;42.00;;;;;3.84;76.38;100904.13;451049;120;386972;-79
2020/12/15 03:22:28;;;;;;;;;44.00;36.00;;;;;3.83;76.31;100898.00;448536;120;384894;-77
2020/12/15 03:23:33;;;;;;;;;40.80;35.20;;;;;3.87;76.21;100906.62;451216;120;386082;-76
2020/12/15 03:24:37;;;;;;;;;44.20;37.70;;;;;3.87;76.21;100906.62;443338;122;392430;-77
2020/12/15 03:25:41;;;;;;;;;44.40;38.20;;;;;3.86;76.30;100908.40;441611;123;383975;-78
2020/12/15 03:26:46;;;;;;;;;49.30;35.90;;;;;3.86;76.47;100910.20;450305;121;387116;-78
2020/12/15 03:27:52;;;;;;;;;41.30;36.60;;;;;3.79;76.90;100912.23;450077;121;393172;-77
2020/12/15 03:29:02;;;;;;;;;37.00;33.20;;;;;3.79;76.90;100912.23;447598;122;386360;-76
2020/12/15 03:30:06;;;;;;;;;47.00;39.50;;;;;3.69;77.14;100916.17;450521;121;384393;-78
2020/12/15 03:31:10;;;;;;;;;37.40;30.20;;;;;3.69;77.14;100916.17;444041;123;384094;-78
2020/12/15 03:32:15;;;;;;;;;41.90;37.40;;;;;3.67;77.39;100918.85;442167;123;386865;-76
2020/12/15 03:33:19;;;;;;;;;41.20;31.00;;;;;3.71;77.40;100919.58;450652;121;389335;-80
2020/12/15 03:34:23;;;;;;;;;45.70;37.10;;;;;3.73;77.11;100917.77;450569;121;386115;-78
2020/12/15 03:35:32;;;;;;;;;48.50;40.80;;;;;3.75;77.08;100926.43;450216;121;385240;-78
2020/12/15 03:36:40;;;;;;;;;42.50;37.10;;;;;3.75;77.08;100926.43;448441;121;394140;-79
2020/12/15 03:37:45;;;;;;;;;48.40;38.60;;;;;3.78;76.87;100925.44;450257;121;386484;-76
2020/12/15 03:38:49;;;;;;;;;46.40;33.40;;;;;3.83;76.76;100926.13;443195;118;384956;-77
2020/12/15 03:39:54;;;;;;;;;42.80;36.30;;;;;3.81;76.30;100928.80;430596;125;386535;-75
2020/12/15 03:41:06;;;;;;;;;40.90;34.60;;;;;3.81;76.30;100928.80;430465;124;384802;-79
2020/12/15 03:42:20;;;;;;;;;40.70;34.40;;;;;3.87;76.32;100925.91;447108;121;385932;-79
2020/12/15 03:43:26;;;;;;;;;43.80;36.30;;;;;3.87;76.32;100925.91;445929;121;386274;-80
2020/12/15 03:44:32;;;;;;;;;45.70;38.50;;;;;3.87;76.43;100922.41;444457;121;392113;-80
2020/12/15 03:45:47;;;;;;;;;41.50;34.10;;;;;3.90;76.16;100928.41;443416;121;386988;-77
2020/12/15 03:46:59;;;;;;;;;44.60;35.70;;;;;3.94;75.96;100929.13;444912;121;394425;-76
2020/12/15 03:48:03;;;;;;;;;47.10;35.60;;;;;3.96;75.83;100929.91;446428;121;385708;-77
2020/12/15 03:49:08;;;;;;;;;46.90;39.30;;;;;3.88;76.02;100930.26;447135;121;386042;-77
2020/12/15 03:50:14;;;;;;;;;43.80;33.70;;;;;3.80;76.48;100928.88;446963;121;386960;-76
2020/12/15 03:51:19;;;;;;;;;34.20;31.50;;;;;3.80;76.48;100928.88;435200;124;384897;-77
2020/12/15 03:52:44;;;;;;;;;41.10;31.20;;;;;3.79;76.62;100930.66;430027;126;386801;-77
2020/12/15 03:53:50;;;;;;;;;41.60;32.10;;;;;3.80;76.48;100934.14;445198;121;382895;-77
2020/12/15 03:54:55;;;;;;;;;38.80;31.10;;;;;3.72;76.54;100932.69;443992;121;385828;-77
2020/12/15 03:56:18;;;;;;;;;34.50;29.90;;;;;3.72;76.54;100932.69;440846;123;383248;-78
2020/12/15 03:57:22;;;;;;;;;37.70;31.70;;;;;3.78;76.34;100931.56;446287;121;386502;-77
2020/12/15 03:58:34;;;;;;;;;41.60;34.00;;;;;3.78;76.34;100931.56;445672;121;386323;-75
2020/12/15 03:59:43;;;;;;;;;37.00;31.00;;;;;3.89;75.93;100939.02;442598;121;389604;-77
2020/12/15 04:00:50;;;;;;;;;40.70;34.50;;;;;3.91;75.96;100948.55;446206;121;386524;-78
2020/12/15 04:01:58;;;;;;;;;48.30;38.60;;;;;3.91;75.96;100948.55;446660;121;387732;-77
2020/12/15 04:03:02;;;;;;;;;49.60;39.60;;;;;3.95;75.76;100946.64;444694;121;385914;-77
2020/12/15 04:04:20;;;;;;;;;42.10;36.20;;;;;3.96;75.65;100945.70;444312;121;386092;-76
2020/12/15 04:05:24;;;;;;;;;43.50;37.50;;;;;4.00;74.96;100944.66;446246;121;385362;-79
2020/12/15 04:06:34;;;;;;;;;36.00;32.10;;;;;4.02;74.97;100946.29;444484;121;383925;-75
2020/12/15 04:07:41;;;;;;;;;46.80;34.40;;;;;4.03;75.03;100944.52;429016;126;385585;-79
2020/12/15 04:08:45;;;;;;;;;49.60;38.80;;;;;4.03;74.86;100948.02;436929;123;387129;-77
2020/12/15 04:09:50;;;;;;;;;46.70;34.70;;;;;4.04;74.99;100939.20;439899;124;385838;-78
2020/12/15 04:10:58;;;;;;;;;51.00;40.60;;;;;4.05;74.85;100943.52;445292;121;385395;-78
2020/12/15 04:12:05;;;;;;;;;44.40;37.70;;;;;4.05;74.85;100943.52;445540;121;386030;-76
2020/12/15 04:13:12;;;;;;;;;46.80;39.90;;;;;4.01;75.23;100946.38;438768;124;392431;-75
2020/12/15 04:14:20;;;;;;;;;40.30;27.50;;;;;3.89;75.62;100949.53;437561;121;384114;-75
2020/12/15 04:15:25;;;;;;;;;43.90;36.60;;;;;3.89;75.62;100949.53;434811;125;385733;-77
2020/12/15 04:16:32;;;;;;;;;47.40;36.10;;;;;3.89;75.72;100945.13;437207;124;388285;-78
2020/12/15 04:17:37;;;;;;;;;43.80;34.90;;;;;3.89;75.63;100941.64;437520;124;386278;-76
2020/12/15 04:18:46;;;;;;;;;41.60;34.20;;;;;3.90;75.84;100946.82;438155;122;385917;-78
2020/12/15 04:19:54;;;;;;;;;43.10;37.00;;;;;3.90;75.84;100946.82;440271;121;385917;-72
2020/12/15 04:21:00;;;;;;;;;50.30;40.00;;;;;3.91;75.82;100948.55;445223;121;392984;-73
2020/12/15 04:22:04;;;;;;;;;43.90;37.00;;;;;3.91;75.76;100951.17;437833;123;385590;-73
2020/12/15 04:23:10;;;;;;;;;46.40;38.20;;;;;3.91;75.76;100951.17;438585;124;392276;-73
2020/12/15 04:24:17;;;;;;;;;57.50;40.00;;;;;3.85;75.89;100954.07;444760;121;387227;-73
2020/12/15 04:25:24;;;;;;;;;45.60;37.10;;;;;3.83;76.22;100952.43;444922;122;385307;-73
2020/12/15 04:26:34;;;;;;;;;62.10;46.70;;;;;3.83;76.22;100952.43;444986;122;387980;-72
2020/12/15 04:27:39;;;;;;;;;39.80;32.40;;;;;3.80;76.32;100952.56;445039;122;391362;-72
2020/12/15 04:28:43;;;;;;;;;61.20;43.50;;;;;3.77;76.65;100958.78;445693;122;387093;-72
2020/12/15 04:29:49;;;;;;;;;54.60;42.30;;;;;3.71;76.55;100956.41;439138;124;386922;-72
2020/12/15 04:30:54;;;;;;;;;52.10;42.90;;;;;3.71;76.55;100956.41;438791;123;386705;-71
2020/12/15 04:32:00;;;;;;;;;40.60;31.50;;;;;3.62;76.86;100954.16;443284;122;385899;-72
2020/12/15 04:33:04;;;;;;;;;47.10;38.20;;;;;3.62;76.86;100954.16;445371;122;393303;-72
2020/12/15 04:34:10;;;;;;;;;39.30;33.10;;;;;3.58;77.32;100956.06;443481;123;384702;-72
2020/12/15 04:35:22;;;;;;;;;42.20;36.70;;;;;3.60;77.25;100958.64;443938;123;385904;-71
2020/12/15 04:36:28;;;;;;;;;57.00;42.80;;;;;3.60;77.25;100958.64;443946;122;388076;-71
2020/12/15 04:37:32;;;;;;;;;47.90;38.60;;;;;3.63;77.20;100958.52;445807;122;385179;-70
2020/12/15 04:38:40;;;;;;;;;47.80;39.40;;;;;3.66;77.37;100959.25;443163;122;385528;-71
2020/12/15 04:39:45;;;;;;;;;45.70;39.60;;;;;3.68;77.04;100964.42;444839;122;385699;-71
2020/12/15 04:40:51;;;;;;;;;46.10;37.80;;;;;3.68;77.04;100964.42;445107;122;386639;-72
2020/12/15 04:41:57;;;;;;;;;50.30;38.70;;;;;3.71;76.92;100961.67;444770;122;385926;-72
2020/12/15 04:43:02;;;;;;;;;40.60;36.10;;;;;3.77;76.51;100963.19;445397;122;385929;-72
2020/12/15 04:44:07;;;;;;;;;37.60;31.10;;;;;3.71;76.48;100965.16;445476;122;382882;-71
2020/12/15 04:45:12;;;;;;;;;55.20;41.30;;;;;3.71;76.48;100965.16;444991;122;387493;-72
2020/12/15 04:46:21;;;;;;;;;35.30;23.30;;;;;3.67;76.62;100954.81;443135;122;382210;-72
2020/12/15 04:47:33;;;;;;;;;52.70;42.20;;;;;3.67;76.62;100954.81;445230;122;386962;-71
2020/12/15 04:48:40;;;;;;;;;40.00;31.90;;;;;3.59;77.31;100959.55;443758;122;386168;-71
2020/12/15 04:50:03;;;;;;;;;41.60;34.80;;;;;3.59;77.31;100959.55;445046;122;384778;-71
2020/12/15 04:51:09;;;;;;;;;44.10;36.10;;;;;3.60;77.13;100972.66;444918;122;385376;-70
2020/12/15 04:52:14;;;;;;;;;39.00;33.90;;;;;3.63;77.02;100963.77;444532;122;386106;-72
2020/12/15 04:53:25;;;;;;;;;43.40;36.30;;;;;3.63;77.02;100963.77;443054;122;385546;-71
2020/12/15 04:54:34;;;;;;;;;34.10;31.80;;;;;3.66;77.03;100971.54;429919;122;384411;-72
2020/12/15 04:55:40;;;;;;;;;42.30;33.50;;;;;3.63;76.71;100969.90;443093;122;388353;-73
2020/12/15 04:56:47;;;;;;;;;33.20;28.20;;;;;3.67;76.88;100966.20;445029;122;383573;-71
2020/12/15 04:57:55;;;;;;;;;34.60;26.60;;;;;3.61;77.17;100960.33;442952;123;390489;-71
2020/12/15 04:58:59;;;;;;;;;40.09;35.09;;;;;3.59;77.41;100968.30;442789;123;391910;-70